sensor_id;sensor_type;location;lat;lon;timestamp;P1;durP1;ratioP1;P2;durP2;ratioP2
43817;SDS011;29868;47.360;18.984;2023-09-30T00:02:16;31.05;;;19.23;;
43817;SDS011;29868;47.360;18.984;2023-09-30T00:04:42;24.00;;;17.05;;
43817;SDS011;29868;47.360;18.984;2023-09-30T00:07:07;23.35;;;17.20;;
43817;SDS011;29868;47.360;18.984;2023-09-30T00:09:33;22.05;;;16.25;;
43817;SDS011;29868;47.360;18.984;2023-09-30T00:11:58;25.90;;;16.75;;
43817;SDS011;29868;47.360;18.984;2023-09-30T00:14:24;23.33;;;15.45;;
43817;SDS011;29868;47.360;18.984;2023-09-30T00:16:50;22.73;;;16.65;;
43817;SDS011;29868;47.360;18.984;2023-09-30T00:19:16;22.63;;;15.88;;
43817;SDS011;29868;47.360;18.984;2023-09-30T00:21:41;24.73;;;15.52;;
43817;SDS011;29868;47.360;18.984;2023-09-30T00:24:07;22.90;;;16.13;;
43817;SDS011;29868;47.360;18.984;2023-09-30T00:26:32;24.17;;;16.40;;
43817;SDS011;29868;47.360;18.984;2023-09-30T00:28:58;27.25;;;16.35;;
43817;SDS011;29868;47.360;18.984;2023-09-30T00:31:23;22.77;;;16.10;;
43817;SDS011;29868;47.360;18.984;2023-09-30T00:33:49;24.20;;;16.67;;
43817;SDS011;29868;47.360;18.984;2023-09-30T00:36:15;23.85;;;15.10;;
43817;SDS011;29868;47.360;18.984;2023-09-30T00:38:40;22.52;;;15.93;;
43817;SDS011;29868;47.360;18.984;2023-09-30T00:41:06;22.85;;;15.73;;
43817;SDS011;29868;47.360;18.984;2023-09-30T00:43:34;21.77;;;15.90;;
43817;SDS011;29868;47.360;18.984;2023-09-30T00:48:30;24.17;;;15.40;;
43817;SDS011;29868;47.360;18.984;2023-09-30T00:50:57;23.65;;;16.52;;
43817;SDS011;29868;47.360;18.984;2023-09-30T00:53:23;22.85;;;16.00;;
43817;SDS011;29868;47.360;18.984;2023-09-30T00:55:48;24.38;;;16.98;;
43817;SDS011;29868;47.360;18.984;2023-09-30T00:58:15;24.05;;;16.88;;
43817;SDS011;29868;47.360;18.984;2023-09-30T01:00:41;24.70;;;17.38;;
43817;SDS011;29868;47.360;18.984;2023-09-30T01:03:07;23.45;;;16.98;;
43817;SDS011;29868;47.360;18.984;2023-09-30T01:05:33;24.00;;;16.10;;
43817;SDS011;29868;47.360;18.984;2023-09-30T01:07:59;21.65;;;15.90;;
43817;SDS011;29868;47.360;18.984;2023-09-30T01:10:27;22.15;;;15.50;;
43817;SDS011;29868;47.360;18.984;2023-09-30T01:12:53;24.45;;;16.02;;
43817;SDS011;29868;47.360;18.984;2023-09-30T01:15:19;21.73;;;15.82;;
43817;SDS011;29868;47.360;18.984;2023-09-30T01:17:44;21.50;;;15.32;;
43817;SDS011;29868;47.360;18.984;2023-09-30T01:20:10;22.38;;;15.80;;
43817;SDS011;29868;47.360;18.984;2023-09-30T01:22:41;23.45;;;15.68;;
43817;SDS011;29868;47.360;18.984;2023-09-30T01:25:07;20.17;;;14.80;;
43817;SDS011;29868;47.360;18.984;2023-09-30T01:27:34;21.58;;;15.18;;
43817;SDS011;29868;47.360;18.984;2023-09-30T01:30:00;20.92;;;15.80;;
43817;SDS011;29868;47.360;18.984;2023-09-30T01:32:25;21.73;;;15.10;;
43817;SDS011;29868;47.360;18.984;2023-09-30T01:34:51;23.25;;;15.00;;
43817;SDS011;29868;47.360;18.984;2023-09-30T01:37:17;21.60;;;15.23;;
43817;SDS011;29868;47.360;18.984;2023-09-30T01:39:42;22.40;;;15.68;;
43817;SDS011;29868;47.360;18.984;2023-09-30T01:42:10;23.02;;;15.38;;
43817;SDS011;29868;47.360;18.984;2023-09-30T01:44:35;20.38;;;14.93;;
43817;SDS011;29868;47.360;18.984;2023-09-30T01:47:01;21.55;;;14.85;;
43817;SDS011;29868;47.360;18.984;2023-09-30T01:49:26;21.08;;;14.60;;
43817;SDS011;29868;47.360;18.984;2023-09-30T01:51:52;21.83;;;15.40;;
43817;SDS011;29868;47.360;18.984;2023-09-30T01:54:18;20.42;;;14.48;;
43817;SDS011;29868;47.360;18.984;2023-09-30T01:56:43;20.73;;;14.60;;
43817;SDS011;29868;47.360;18.984;2023-09-30T01:59:08;21.33;;;14.90;;
43817;SDS011;29868;47.360;18.984;2023-09-30T02:01:34;27.60;;;14.73;;
43817;SDS011;29868;47.360;18.984;2023-09-30T02:03:59;22.92;;;15.35;;
43817;SDS011;29868;47.360;18.984;2023-09-30T02:06:25;22.17;;;15.38;;
43817;SDS011;29868;47.360;18.984;2023-09-30T02:08:50;24.50;;;14.68;;
43817;SDS011;29868;47.360;18.984;2023-09-30T02:11:16;23.65;;;14.82;;
43817;SDS011;29868;47.360;18.984;2023-09-30T02:13:41;20.73;;;14.68;;
43817;SDS011;29868;47.360;18.984;2023-09-30T02:16:14;22.20;;;14.75;;
43817;SDS011;29868;47.360;18.984;2023-09-30T02:18:41;21.95;;;14.75;;
43817;SDS011;29868;47.360;18.984;2023-09-30T02:21:09;20.83;;;14.05;;
43817;SDS011;29868;47.360;18.984;2023-09-30T02:23:35;21.98;;;15.00;;
43817;SDS011;29868;47.360;18.984;2023-09-30T02:26:01;19.92;;;14.73;;
43817;SDS011;29868;47.360;18.984;2023-09-30T02:28:28;23.70;;;15.77;;
43817;SDS011;29868;47.360;18.984;2023-09-30T02:30:54;22.85;;;15.35;;
43817;SDS011;29868;47.360;18.984;2023-09-30T02:33:19;22.02;;;14.68;;
43817;SDS011;29868;47.360;18.984;2023-09-30T02:35:45;21.92;;;15.90;;
43817;SDS011;29868;47.360;18.984;2023-09-30T02:38:11;22.70;;;15.38;;
43817;SDS011;29868;47.360;18.984;2023-09-30T02:40:37;20.20;;;14.23;;
43817;SDS011;29868;47.360;18.984;2023-09-30T02:43:03;27.27;;;16.05;;
43817;SDS011;29868;47.360;18.984;2023-09-30T02:45:29;24.15;;;16.63;;
43817;SDS011;29868;47.360;18.984;2023-09-30T02:47:54;23.67;;;17.05;;
43817;SDS011;29868;47.360;18.984;2023-09-30T02:50:20;23.95;;;15.30;;
43817;SDS011;29868;47.360;18.984;2023-09-30T02:52:46;22.27;;;15.23;;
43817;SDS011;29868;47.360;18.984;2023-09-30T02:55:12;21.55;;;15.57;;
43817;SDS011;29868;47.360;18.984;2023-09-30T02:57:37;24.90;;;15.85;;
43817;SDS011;29868;47.360;18.984;2023-09-30T03:00:03;23.40;;;16.15;;
43817;SDS011;29868;47.360;18.984;2023-09-30T03:02:52;21.42;;;15.75;;
43817;SDS011;29868;47.360;18.984;2023-09-30T03:05:18;23.50;;;15.85;;
43817;SDS011;29868;47.360;18.984;2023-09-30T03:07:45;23.92;;;15.35;;
43817;SDS011;29868;47.360;18.984;2023-09-30T03:10:11;23.65;;;16.27;;
43817;SDS011;29868;47.360;18.984;2023-09-30T03:12:42;23.85;;;15.77;;
43817;SDS011;29868;47.360;18.984;2023-09-30T03:15:07;22.15;;;15.82;;
43817;SDS011;29868;47.360;18.984;2023-09-30T03:17:34;22.30;;;15.45;;
43817;SDS011;29868;47.360;18.984;2023-09-30T03:20:00;24.27;;;16.40;;
43817;SDS011;29868;47.360;18.984;2023-09-30T03:22:26;23.00;;;15.68;;
43817;SDS011;29868;47.360;18.984;2023-09-30T03:24:52;23.75;;;16.23;;
43817;SDS011;29868;47.360;18.984;2023-09-30T03:27:19;22.88;;;16.00;;
43817;SDS011;29868;47.360;18.984;2023-09-30T03:29:45;23.52;;;16.00;;
43817;SDS011;29868;47.360;18.984;2023-09-30T03:32:11;24.80;;;17.10;;
43817;SDS011;29868;47.360;18.984;2023-09-30T03:34:36;24.17;;;15.70;;
43817;SDS011;29868;47.360;18.984;2023-09-30T03:37:02;23.30;;;16.17;;
43817;SDS011;29868;47.360;18.984;2023-09-30T03:39:27;19.60;;;14.93;;
43817;SDS011;29868;47.360;18.984;2023-09-30T03:41:55;22.98;;;15.77;;
43817;SDS011;29868;47.360;18.984;2023-09-30T03:44:21;22.60;;;15.68;;
43817;SDS011;29868;47.360;18.984;2023-09-30T03:46:48;22.10;;;16.02;;
43817;SDS011;29868;47.360;18.984;2023-09-30T03:49:14;23.67;;;16.65;;
43817;SDS011;29868;47.360;18.984;2023-09-30T03:51:40;25.77;;;17.45;;
43817;SDS011;29868;47.360;18.984;2023-09-30T03:54:06;26.98;;;16.77;;
43817;SDS011;29868;47.360;18.984;2023-09-30T03:56:31;25.27;;;17.08;;
43817;SDS011;29868;47.360;18.984;2023-09-30T03:58:56;25.08;;;16.73;;
43817;SDS011;29868;47.360;18.984;2023-09-30T04:01:22;22.05;;;16.45;;
43817;SDS011;29868;47.360;18.984;2023-09-30T04:03:49;27.27;;;16.92;;
43817;SDS011;29868;47.360;18.984;2023-09-30T04:06:15;24.73;;;16.30;;
43817;SDS011;29868;47.360;18.984;2023-09-30T04:08:40;23.27;;;16.10;;
43817;SDS011;29868;47.360;18.984;2023-09-30T04:11:06;23.92;;;16.20;;
43817;SDS011;29868;47.360;18.984;2023-09-30T04:13:31;27.17;;;16.20;;
43817;SDS011;29868;47.360;18.984;2023-09-30T04:15:58;22.42;;;15.80;;
43817;SDS011;29868;47.360;18.984;2023-09-30T04:18:24;24.08;;;16.60;;
43817;SDS011;29868;47.360;18.984;2023-09-30T04:20:51;22.25;;;15.65;;
43817;SDS011;29868;47.360;18.984;2023-09-30T04:23:17;26.58;;;15.52;;
43817;SDS011;29868;47.360;18.984;2023-09-30T04:25:45;23.95;;;15.85;;
43817;SDS011;29868;47.360;18.984;2023-09-30T04:28:11;25.58;;;16.15;;
43817;SDS011;29868;47.360;18.984;2023-09-30T04:30:38;24.98;;;16.10;;
43817;SDS011;29868;47.360;18.984;2023-09-30T04:33:04;26.55;;;16.30;;
43817;SDS011;29868;47.360;18.984;2023-09-30T04:35:30;23.83;;;16.50;;
43817;SDS011;29868;47.360;18.984;2023-09-30T04:37:55;26.92;;;16.50;;
43817;SDS011;29868;47.360;18.984;2023-09-30T04:40:25;23.92;;;15.32;;
43817;SDS011;29868;47.360;18.984;2023-09-30T04:42:51;24.05;;;15.48;;
43817;SDS011;29868;47.360;18.984;2023-09-30T04:45:19;24.55;;;15.48;;
43817;SDS011;29868;47.360;18.984;2023-09-30T04:47:50;24.58;;;16.55;;
43817;SDS011;29868;47.360;18.984;2023-09-30T04:50:15;24.45;;;16.17;;
43817;SDS011;29868;47.360;18.984;2023-09-30T04:52:41;24.38;;;16.20;;
43817;SDS011;29868;47.360;18.984;2023-09-30T04:55:07;22.58;;;15.60;;
43817;SDS011;29868;47.360;18.984;2023-09-30T04:57:33;23.83;;;16.23;;
43817;SDS011;29868;47.360;18.984;2023-09-30T04:59:59;23.95;;;15.57;;
43817;SDS011;29868;47.360;18.984;2023-09-30T05:02:25;24.98;;;15.75;;
43817;SDS011;29868;47.360;18.984;2023-09-30T05:04:52;27.73;;;16.55;;
43817;SDS011;29868;47.360;18.984;2023-09-30T05:07:18;24.42;;;16.83;;
43817;SDS011;29868;47.360;18.984;2023-09-30T05:09:44;28.30;;;17.23;;
43817;SDS011;29868;47.360;18.984;2023-09-30T05:12:10;24.27;;;16.45;;
43817;SDS011;29868;47.360;18.984;2023-09-30T05:14:36;26.83;;;16.95;;
43817;SDS011;29868;47.360;18.984;2023-09-30T05:17:04;24.90;;;16.23;;
43817;SDS011;29868;47.360;18.984;2023-09-30T05:19:30;24.02;;;17.40;;
43817;SDS011;29868;47.360;18.984;2023-09-30T05:22:01;28.05;;;18.30;;
43817;SDS011;29868;47.360;18.984;2023-09-30T05:24:28;24.70;;;16.92;;
43817;SDS011;29868;47.360;18.984;2023-09-30T05:26:54;26.80;;;17.50;;
43817;SDS011;29868;47.360;18.984;2023-09-30T05:29:20;23.70;;;17.27;;
43817;SDS011;29868;47.360;18.984;2023-09-30T05:31:45;27.55;;;18.17;;
43817;SDS011;29868;47.360;18.984;2023-09-30T05:34:11;27.30;;;17.73;;
43817;SDS011;29868;47.360;18.984;2023-09-30T05:36:36;25.98;;;17.70;;
43817;SDS011;29868;47.360;18.984;2023-09-30T05:39:02;23.85;;;16.80;;
43817;SDS011;29868;47.360;18.984;2023-09-30T05:41:28;22.25;;;16.10;;
43817;SDS011;29868;47.360;18.984;2023-09-30T05:43:54;21.55;;;16.02;;
43817;SDS011;29868;47.360;18.984;2023-09-30T05:46:20;19.80;;;14.45;;
43817;SDS011;29868;47.360;18.984;2023-09-30T05:48:46;21.80;;;15.45;;
43817;SDS011;29868;47.360;18.984;2023-09-30T05:51:11;21.50;;;15.82;;
43817;SDS011;29868;47.360;18.984;2023-09-30T05:53:40;23.15;;;16.10;;
43817;SDS011;29868;47.360;18.984;2023-09-30T05:56:06;19.33;;;14.90;;
43817;SDS011;29868;47.360;18.984;2023-09-30T05:58:32;20.90;;;15.73;;
43817;SDS011;29868;47.360;18.984;2023-09-30T06:00:57;20.02;;;15.07;;
43817;SDS011;29868;47.360;18.984;2023-09-30T06:03:23;19.98;;;14.93;;
43817;SDS011;29868;47.360;18.984;2023-09-30T06:05:48;20.05;;;14.32;;
43817;SDS011;29868;47.360;18.984;2023-09-30T06:08:14;20.45;;;14.07;;
43817;SDS011;29868;47.360;18.984;2023-09-30T06:10:40;21.08;;;13.90;;
43817;SDS011;29868;47.360;18.984;2023-09-30T06:13:10;17.80;;;14.05;;
43817;SDS011;29868;47.360;18.984;2023-09-30T06:15:39;18.85;;;13.88;;
43817;SDS011;29868;47.360;18.984;2023-09-30T06:18:06;18.05;;;13.32;;
43817;SDS011;29868;47.360;18.984;2023-09-30T06:20:33;17.42;;;13.88;;
43817;SDS011;29868;47.360;18.984;2023-09-30T06:22:58;20.20;;;13.93;;
43817;SDS011;29868;47.360;18.984;2023-09-30T06:25:26;19.83;;;14.55;;
43817;SDS011;29868;47.360;18.984;2023-09-30T06:27:53;20.70;;;14.50;;
43817;SDS011;29868;47.360;18.984;2023-09-30T06:30:22;18.13;;;14.05;;
43817;SDS011;29868;47.360;18.984;2023-09-30T06:32:54;21.10;;;14.75;;
43817;SDS011;29868;47.360;18.984;2023-09-30T06:35:21;18.15;;;14.00;;
43817;SDS011;29868;47.360;18.984;2023-09-30T06:37:46;19.15;;;13.52;;
43817;SDS011;29868;47.360;18.984;2023-09-30T06:40:12;19.67;;;14.85;;
43817;SDS011;29868;47.360;18.984;2023-09-30T06:42:38;21.67;;;14.73;;
43817;SDS011;29868;47.360;18.984;2023-09-30T06:45:05;20.52;;;15.05;;
43817;SDS011;29868;47.360;18.984;2023-09-30T06:47:34;20.23;;;14.73;;
43817;SDS011;29868;47.360;18.984;2023-09-30T06:50:04;16.70;;;13.52;;
43817;SDS011;29868;47.360;18.984;2023-09-30T06:52:34;19.00;;;13.77;;
43817;SDS011;29868;47.360;18.984;2023-09-30T06:55:03;21.85;;;14.07;;
43817;SDS011;29868;47.360;18.984;2023-09-30T06:57:34;16.83;;;13.43;;
43817;SDS011;29868;47.360;18.984;2023-09-30T07:00:00;20.52;;;13.52;;
43817;SDS011;29868;47.360;18.984;2023-09-30T07:02:29;21.65;;;14.30;;
43817;SDS011;29868;47.360;18.984;2023-09-30T07:04:54;17.67;;;13.88;;
43817;SDS011;29868;47.360;18.984;2023-09-30T07:07:20;17.88;;;14.35;;
43817;SDS011;29868;47.360;18.984;2023-09-30T07:09:45;20.02;;;14.43;;
43817;SDS011;29868;47.360;18.984;2023-09-30T07:12:11;21.05;;;14.85;;
43817;SDS011;29868;47.360;18.984;2023-09-30T07:14:37;18.67;;;14.98;;
43817;SDS011;29868;47.360;18.984;2023-09-30T07:17:02;20.30;;;14.77;;
43817;SDS011;29868;47.360;18.984;2023-09-30T07:19:29;19.00;;;14.80;;
43817;SDS011;29868;47.360;18.984;2023-09-30T07:21:55;18.38;;;14.90;;
43817;SDS011;29868;47.360;18.984;2023-09-30T07:24:21;19.33;;;15.63;;
43817;SDS011;29868;47.360;18.984;2023-09-30T07:26:46;20.45;;;15.00;;
43817;SDS011;29868;47.360;18.984;2023-09-30T07:29:12;18.52;;;14.07;;
43817;SDS011;29868;47.360;18.984;2023-09-30T07:31:37;19.65;;;14.82;;
43817;SDS011;29868;47.360;18.984;2023-09-30T07:34:03;20.42;;;15.15;;
43817;SDS011;29868;47.360;18.984;2023-09-30T07:36:28;19.23;;;15.02;;
43817;SDS011;29868;47.360;18.984;2023-09-30T07:38:54;17.92;;;14.82;;
43817;SDS011;29868;47.360;18.984;2023-09-30T07:41:19;18.45;;;14.38;;
43817;SDS011;29868;47.360;18.984;2023-09-30T07:43:45;19.55;;;14.38;;
43817;SDS011;29868;47.360;18.984;2023-09-30T07:46:10;21.95;;;15.02;;
43817;SDS011;29868;47.360;18.984;2023-09-30T07:48:35;18.10;;;14.35;;
43817;SDS011;29868;47.360;18.984;2023-09-30T07:51:01;17.13;;;14.30;;
43817;SDS011;29868;47.360;18.984;2023-09-30T07:53:27;22.17;;;14.63;;
43817;SDS011;29868;47.360;18.984;2023-09-30T07:55:53;18.92;;;14.73;;
43817;SDS011;29868;47.360;18.984;2023-09-30T07:58:19;17.48;;;13.15;;
43817;SDS011;29868;47.360;18.984;2023-09-30T08:00:45;16.35;;;11.65;;
43817;SDS011;29868;47.360;18.984;2023-09-30T08:03:11;13.68;;;10.75;;
43817;SDS011;29868;47.360;18.984;2023-09-30T08:05:37;14.27;;;10.35;;
43817;SDS011;29868;47.360;18.984;2023-09-30T08:08:02;15.32;;;10.73;;
43817;SDS011;29868;47.360;18.984;2023-09-30T08:10:29;11.63;;;9.38;;
43817;SDS011;29868;47.360;18.984;2023-09-30T08:12:56;11.85;;;9.32;;
43817;SDS011;29868;47.360;18.984;2023-09-30T08:15:23;12.70;;;8.55;;
43817;SDS011;29868;47.360;18.984;2023-09-30T08:17:49;10.27;;;8.40;;
43817;SDS011;29868;47.360;18.984;2023-09-30T08:20:15;11.25;;;7.95;;
43817;SDS011;29868;47.360;18.984;2023-09-30T08:22:40;11.40;;;7.65;;
43817;SDS011;29868;47.360;18.984;2023-09-30T08:25:06;9.90;;;7.60;;
43817;SDS011;29868;47.360;18.984;2023-09-30T08:27:32;10.45;;;7.70;;
43817;SDS011;29868;47.360;18.984;2023-09-30T08:29:57;10.38;;;7.35;;
43817;SDS011;29868;47.360;18.984;2023-09-30T08:32:23;9.07;;;7.57;;
43817;SDS011;29868;47.360;18.984;2023-09-30T08:34:48;10.07;;;6.80;;
43817;SDS011;29868;47.360;18.984;2023-09-30T08:37:14;9.68;;;7.18;;
43817;SDS011;29868;47.360;18.984;2023-09-30T08:39:40;9.30;;;6.75;;
43817;SDS011;29868;47.360;18.984;2023-09-30T08:42:09;10.82;;;6.90;;
43817;SDS011;29868;47.360;18.984;2023-09-30T08:44:38;9.27;;;6.65;;
43817;SDS011;29868;47.360;18.984;2023-09-30T08:47:05;9.65;;;6.40;;
43817;SDS011;29868;47.360;18.984;2023-09-30T08:49:38;10.20;;;6.63;;
43817;SDS011;29868;47.360;18.984;2023-09-30T08:52:05;9.48;;;6.38;;
43817;SDS011;29868;47.360;18.984;2023-09-30T08:54:31;10.45;;;6.07;;
43817;SDS011;29868;47.360;18.984;2023-09-30T08:56:57;8.18;;;6.03;;
43817;SDS011;29868;47.360;18.984;2023-09-30T08:59:25;8.52;;;5.60;;
43817;SDS011;29868;47.360;18.984;2023-09-30T09:01:52;8.32;;;5.82;;
43817;SDS011;29868;47.360;18.984;2023-09-30T09:04:17;7.82;;;5.35;;
43817;SDS011;29868;47.360;18.984;2023-09-30T09:06:43;7.72;;;5.70;;
43817;SDS011;29868;47.360;18.984;2023-09-30T09:11:42;10.43;;;5.50;;
43817;SDS011;29868;47.360;18.984;2023-09-30T09:14:08;7.55;;;5.55;;
43817;SDS011;29868;47.360;18.984;2023-09-30T09:16:33;6.35;;;4.82;;
43817;SDS011;29868;47.360;18.984;2023-09-30T09:18:59;12.25;;;5.75;;
43817;SDS011;29868;47.360;18.984;2023-09-30T09:21:32;8.87;;;5.20;;
43817;SDS011;29868;47.360;18.984;2023-09-30T09:23:58;8.32;;;5.30;;
43817;SDS011;29868;47.360;18.984;2023-09-30T09:26:24;7.90;;;5.40;;
43817;SDS011;29868;47.360;18.984;2023-09-30T09:29:01;10.38;;;5.05;;
43817;SDS011;29868;47.360;18.984;2023-09-30T09:31:32;8.23;;;5.70;;
43817;SDS011;29868;47.360;18.984;2023-09-30T09:34:12;7.45;;;5.30;;
43817;SDS011;29868;47.360;18.984;2023-09-30T09:39:06;9.15;;;5.18;;
43817;SDS011;29868;47.360;18.984;2023-09-30T09:41:31;7.13;;;5.43;;
43817;SDS011;29868;47.360;18.984;2023-09-30T09:43:57;10.82;;;5.75;;
43817;SDS011;29868;47.360;18.984;2023-09-30T09:46:24;8.70;;;5.07;;
43817;SDS011;29868;47.360;18.984;2023-09-30T09:48:52;8.15;;;5.20;;
43817;SDS011;29868;47.360;18.984;2023-09-30T09:51:19;11.07;;;5.63;;
43817;SDS011;29868;47.360;18.984;2023-09-30T09:53:45;7.22;;;5.50;;
43817;SDS011;29868;47.360;18.984;2023-09-30T09:56:14;9.00;;;5.47;;
43817;SDS011;29868;47.360;18.984;2023-09-30T09:58:42;7.55;;;5.30;;
43817;SDS011;29868;47.360;18.984;2023-09-30T10:01:09;7.28;;;5.35;;
43817;SDS011;29868;47.360;18.984;2023-09-30T10:03:35;8.90;;;5.50;;
43817;SDS011;29868;47.360;18.984;2023-09-30T10:06:02;7.97;;;5.32;;
43817;SDS011;29868;47.360;18.984;2023-09-30T10:08:36;9.02;;;5.18;;
43817;SDS011;29868;47.360;18.984;2023-09-30T10:11:05;8.27;;;5.28;;
43817;SDS011;29868;47.360;18.984;2023-09-30T10:19:13;6.55;;;5.13;;
43817;SDS011;29868;47.360;18.984;2023-09-30T10:21:39;10.70;;;5.18;;
43817;SDS011;29868;47.360;18.984;2023-09-30T10:35:16;7.32;;;4.95;;
43817;SDS011;29868;47.360;18.984;2023-09-30T10:37:46;9.63;;;5.07;;
43817;SDS011;29868;47.360;18.984;2023-09-30T10:40:28;7.63;;;5.13;;
43817;SDS011;29868;47.360;18.984;2023-09-30T10:42:54;7.78;;;5.07;;
43817;SDS011;29868;47.360;18.984;2023-09-30T10:50:50;8.77;;;5.28;;
43817;SDS011;29868;47.360;18.984;2023-09-30T10:53:20;7.03;;;5.40;;
43817;SDS011;29868;47.360;18.984;2023-09-30T10:55:46;9.05;;;5.25;;
43817;SDS011;29868;47.360;18.984;2023-09-30T10:58:14;6.97;;;4.97;;
43817;SDS011;29868;47.360;18.984;2023-09-30T11:00:51;7.55;;;5.53;;
43817;SDS011;29868;47.360;18.984;2023-09-30T11:03:19;8.05;;;5.50;;
43817;SDS011;29868;47.360;18.984;2023-09-30T11:05:47;7.53;;;5.32;;
43817;SDS011;29868;47.360;18.984;2023-09-30T11:08:18;8.32;;;5.28;;
43817;SDS011;29868;47.360;18.984;2023-09-30T11:10:48;7.10;;;5.18;;
43817;SDS011;29868;47.360;18.984;2023-09-30T11:13:15;9.05;;;5.20;;
43817;SDS011;29868;47.360;18.984;2023-09-30T11:15:41;7.18;;;6.03;;
43817;SDS011;29868;47.360;18.984;2023-09-30T11:18:16;8.38;;;5.28;;
43817;SDS011;29868;47.360;18.984;2023-09-30T11:20:43;6.97;;;5.07;;
43817;SDS011;29868;47.360;18.984;2023-09-30T11:23:09;8.07;;;6.07;;
43817;SDS011;29868;47.360;18.984;2023-09-30T11:25:39;9.15;;;6.03;;
43817;SDS011;29868;47.360;18.984;2023-09-30T11:28:13;7.18;;;5.60;;
43817;SDS011;29868;47.360;18.984;2023-09-30T11:33:20;8.13;;;5.47;;
43817;SDS011;29868;47.360;18.984;2023-09-30T11:38:27;8.80;;;6.18;;
43817;SDS011;29868;47.360;18.984;2023-09-30T11:43:31;8.40;;;5.88;;
43817;SDS011;29868;47.360;18.984;2023-09-30T11:46:05;8.45;;;5.32;;
43817;SDS011;29868;47.360;18.984;2023-09-30T11:51:28;9.15;;;6.13;;
43817;SDS011;29868;47.360;18.984;2023-09-30T11:53:54;11.73;;;6.07;;
43817;SDS011;29868;47.360;18.984;2023-09-30T11:56:21;9.60;;;5.95;;
43817;SDS011;29868;47.360;18.984;2023-09-30T11:58:52;13.45;;;6.78;;
43817;SDS011;29868;47.360;18.984;2023-09-30T12:01:18;11.75;;;6.75;;
43817;SDS011;29868;47.360;18.984;2023-09-30T12:03:47;10.70;;;6.57;;
43817;SDS011;29868;47.360;18.984;2023-09-30T12:06:12;9.80;;;6.75;;
43817;SDS011;29868;47.360;18.984;2023-09-30T12:08:39;11.25;;;6.80;;
43817;SDS011;29868;47.360;18.984;2023-09-30T12:11:05;9.05;;;6.75;;
43817;SDS011;29868;47.360;18.984;2023-09-30T12:13:31;11.35;;;6.93;;
43817;SDS011;29868;47.360;18.984;2023-09-30T12:15:56;10.43;;;6.90;;
43817;SDS011;29868;47.360;18.984;2023-09-30T12:18:22;10.73;;;7.07;;
43817;SDS011;29868;47.360;18.984;2023-09-30T12:20:52;14.30;;;6.80;;
43817;SDS011;29868;47.360;18.984;2023-09-30T12:23:20;9.52;;;6.85;;
43817;SDS011;29868;47.360;18.984;2023-09-30T12:25:46;9.77;;;7.10;;
43817;SDS011;29868;47.360;18.984;2023-09-30T12:28:12;11.00;;;7.57;;
43817;SDS011;29868;47.360;18.984;2023-09-30T12:30:40;11.45;;;7.03;;
43817;SDS011;29868;47.360;18.984;2023-09-30T12:33:06;12.30;;;6.80;;
43817;SDS011;29868;47.360;18.984;2023-09-30T12:35:32;10.48;;;6.95;;
43817;SDS011;29868;47.360;18.984;2023-09-30T12:37:58;10.32;;;7.07;;
43817;SDS011;29868;47.360;18.984;2023-09-30T12:40:24;11.82;;;7.15;;
43817;SDS011;29868;47.360;18.984;2023-09-30T12:42:49;11.82;;;7.35;;
43817;SDS011;29868;47.360;18.984;2023-09-30T12:45:15;11.40;;;7.35;;
43817;SDS011;29868;47.360;18.984;2023-09-30T12:47:41;10.85;;;7.40;;
43817;SDS011;29868;47.360;18.984;2023-09-30T12:50:07;11.95;;;7.32;;
43817;SDS011;29868;47.360;18.984;2023-09-30T12:52:36;13.20;;;7.30;;
43817;SDS011;29868;47.360;18.984;2023-09-30T12:55:03;10.55;;;7.05;;
43817;SDS011;29868;47.360;18.984;2023-09-30T12:57:30;11.35;;;6.75;;
43817;SDS011;29868;47.360;18.984;2023-09-30T12:59:55;9.45;;;6.68;;
43817;SDS011;29868;47.360;18.984;2023-09-30T13:02:21;11.52;;;6.70;;
43817;SDS011;29868;47.360;18.984;2023-09-30T13:04:47;11.50;;;7.15;;
43817;SDS011;29868;47.360;18.984;2023-09-30T13:07:13;11.60;;;6.72;;
43817;SDS011;29868;47.360;18.984;2023-09-30T13:09:39;10.18;;;6.93;;
43817;SDS011;29868;47.360;18.984;2023-09-30T13:12:05;12.10;;;7.22;;
43817;SDS011;29868;47.360;18.984;2023-09-30T13:14:30;10.88;;;6.63;;
43817;SDS011;29868;47.360;18.984;2023-09-30T13:16:56;10.60;;;7.18;;
43817;SDS011;29868;47.360;18.984;2023-09-30T13:19:21;11.57;;;7.22;;
43817;SDS011;29868;47.360;18.984;2023-09-30T13:21:48;11.13;;;7.00;;
43817;SDS011;29868;47.360;18.984;2023-09-30T13:24:18;10.20;;;7.07;;
43817;SDS011;29868;47.360;18.984;2023-09-30T13:26:44;12.82;;;7.47;;
43817;SDS011;29868;47.360;18.984;2023-09-30T13:29:10;14.20;;;7.32;;
43817;SDS011;29868;47.360;18.984;2023-09-30T13:31:36;10.77;;;7.68;;
43817;SDS011;29868;47.360;18.984;2023-09-30T13:34:03;11.10;;;7.32;;
43817;SDS011;29868;47.360;18.984;2023-09-30T13:36:29;12.00;;;7.35;;
43817;SDS011;29868;47.360;18.984;2023-09-30T13:38:55;10.20;;;6.80;;
43817;SDS011;29868;47.360;18.984;2023-09-30T13:41:20;11.57;;;7.28;;
43817;SDS011;29868;47.360;18.984;2023-09-30T13:43:46;10.15;;;7.25;;
43817;SDS011;29868;47.360;18.984;2023-09-30T13:46:11;12.02;;;6.85;;
43817;SDS011;29868;47.360;18.984;2023-09-30T13:48:37;11.68;;;6.97;;
43817;SDS011;29868;47.360;18.984;2023-09-30T13:51:06;10.20;;;7.30;;
43817;SDS011;29868;47.360;18.984;2023-09-30T13:53:33;12.00;;;7.20;;
43817;SDS011;29868;47.360;18.984;2023-09-30T13:55:58;8.70;;;6.55;;
43817;SDS011;29868;47.360;18.984;2023-09-30T13:58:24;10.38;;;6.75;;
43817;SDS011;29868;47.360;18.984;2023-09-30T14:00:50;11.80;;;7.30;;
43817;SDS011;29868;47.360;18.984;2023-09-30T14:03:17;11.57;;;7.70;;
43817;SDS011;29868;47.360;18.984;2023-09-30T14:05:44;11.82;;;7.63;;
43817;SDS011;29868;47.360;18.984;2023-09-30T14:08:10;9.68;;;7.35;;
43817;SDS011;29868;47.360;18.984;2023-09-30T14:10:36;11.32;;;7.68;;
43817;SDS011;29868;47.360;18.984;2023-09-30T14:13:01;10.88;;;7.55;;
43817;SDS011;29868;47.360;18.984;2023-09-30T14:15:28;10.75;;;7.55;;
43817;SDS011;29868;47.360;18.984;2023-09-30T14:17:54;12.02;;;8.07;;
43817;SDS011;29868;47.360;18.984;2023-09-30T14:20:20;13.25;;;7.65;;
43817;SDS011;29868;47.360;18.984;2023-09-30T14:22:46;12.05;;;7.97;;
43817;SDS011;29868;47.360;18.984;2023-09-30T14:25:12;11.95;;;7.95;;
43817;SDS011;29868;47.360;18.984;2023-09-30T14:27:38;11.77;;;7.50;;
43817;SDS011;29868;47.360;18.984;2023-09-30T14:30:05;17.33;;;10.57;;
43817;SDS011;29868;47.360;18.984;2023-09-30T14:32:31;22.55;;;15.50;;
43817;SDS011;29868;47.360;18.984;2023-09-30T14:34:57;23.58;;;14.98;;
43817;SDS011;29868;47.360;18.984;2023-09-30T14:37:23;12.52;;;9.30;;
43817;SDS011;29868;47.360;18.984;2023-09-30T14:39:48;18.95;;;10.68;;
43817;SDS011;29868;47.360;18.984;2023-09-30T14:42:14;16.80;;;9.73;;
43817;SDS011;29868;47.360;18.984;2023-09-30T14:44:40;14.90;;;9.70;;
43817;SDS011;29868;47.360;18.984;2023-09-30T14:47:05;13.57;;;9.00;;
43817;SDS011;29868;47.360;18.984;2023-09-30T14:49:31;11.82;;;8.25;;
43817;SDS011;29868;47.360;18.984;2023-09-30T14:51:57;15.00;;;8.57;;
43817;SDS011;29868;47.360;18.984;2023-09-30T14:54:23;11.30;;;7.82;;